Private Wetterstation Wechselburg
Wetterdaten: Donnerstag, 01.10.2009
Datum Zeit Temp. +2m Bodentemp. Temp.+5cm Temp. Wind Windchill X Diff Temp. Feuchte +2m Feuchte +5cm Sonnenschein Luftdruck Regen Wind Richtung Richtung Sonnenschein UV Taupunkt Windchill Windben
01.10.2009 00:00 12,7 C 14,3 C 12,6 C 13,0 C 13,0 C 0,3 C 92 % 99 % 0 % 1012,1 hPa 0,0 l/m 1,0 km/h (0 Bft) S-SW 202 0 min 0,0 UV-I 11,4 C 13,0 C 6,4 km/h (2 Bft)
01.10.2009 00:08 12,8 C 14,3 C 12,8 C 13,3 C 13,3 C 0,5 C 92 % 99 % 0 % 1011,8 hPa 0,0 l/m 1,0 km/h (0 Bft) S-SO 157 0 min 0,0 UV-I 11,5 C 13,3 C 2,1 km/h (1 Bft)
01.10.2009 00:09 12,8 C 14,3 C 12,8 C 13,3 C 13,3 C 0,5 C 92 % 99 % 0 % 1011,8 hPa 0,0 l/m 1,0 km/h (0 Bft) S-SO 157 0 min 0,0 UV-I 11,5 C 13,3 C 2,1 km/h (1 Bft)
01.10.2009 00:15 12,9 C 14,3 C 12,9 C 13,3 C 13,3 C 0,4 C 92 % 98 % 0 % 1011,8 hPa 0,0 l/m 0,8 km/h (0 Bft) S-SO 157 0 min 0,0 UV-I 11,6 C 13,3 C 1,6 km/h (1 Bft)
01.10.2009 00:20 13,0 C 14,3 C 13,1 C 13,5 C 13,5 C 0,5 C 92 % 98 % 0 % 1011,8 hPa 0,0 l/m 1,1 km/h (1 Bft) SO 135 0 min 0,0 UV-I 11,7 C 13,5 C 6,4 km/h (2 Bft)
01.10.2009 00:25 13,0 C 14,3 C 13,1 C 13,5 C 13,5 C 0,5 C 92 % 98 % 0 % 1011,6 hPa 0,0 l/m 1,1 km/h (1 Bft) W-SW 247 0 min 0,0 UV-I 11,7 C 13,5 C 2,6 km/h (1 Bft)
01.10.2009 00:30 13,2 C 14,3 C 13,2 C 13,7 C 13,7 C 0,5 C 91 % 99 % 0 % 1011,6 hPa 0,0 l/m 0,8 km/h (0 Bft) SW 225 0 min 0,0 UV-I 11,8 C 13,7 C 3,1 km/h (1 Bft)
01.10.2009 00:35 13,3 C 14,3 C 13,3 C 13,7 C 13,7 C 0,4 C 91 % 98 % 0 % 1011,6 hPa 0,0 l/m 1,1 km/h (1 Bft) N 360 0 min 0,0 UV-I 11,9 C 13,7 C 0,0 km/h (0 Bft)
01.10.2009 00:40 13,3 C 14,3 C 13,5 C 13,8 C 13,8 C 0,5 C 91 % 98 % 0 % 1011,6 hPa 0,0 l/m 1,3 km/h (1 Bft) S-SW 202 0 min 0,0 UV-I 11,9 C 13,8 C 2,1 km/h (1 Bft)
01.10.2009 00:45 13,4 C 14,3 C 13,5 C 13,8 C 13,8 C 0,4 C 91 % 98 % 0 % 1011,7 hPa 0,0 l/m 1,0 km/h (0 Bft) W 270 0 min 0,0 UV-I 12,0 C 13,8 C 2,1 km/h (1 Bft)
01.10.2009 00:50 13,4 C 14,3 C 13,4 C 13,9 C 13,9 C 0,5 C 91 % 98 % 0 % 1011,7 hPa 0,0 l/m 1,4 km/h (1 Bft) W 270 0 min 0,0 UV-I 12,0 C 13,9 C 6,9 km/h (2 Bft)
01.10.2009 00:55 13,5 C 14,3 C 13,5 C 13,9 C 13,9 C 0,4 C 91 % 98 % 0 % 1011,7 hPa 0,0 l/m 2,1 km/h (1 Bft) O-SO 112 0 min 0,0 UV-I 12,1 C 13,9 C 1,6 km/h (1 Bft)
01.10.2009 01:00 13,5 C 14,3 C 13,7 C 14,0 C 14,0 C 0,5 C 91 % 98 % 0 % 1011,7 hPa 0,0 l/m 1,8 km/h (1 Bft) W-SW 247 0 min 0,0 UV-I 12,1 C 14,0 C 7,2 km/h (2 Bft)
01.10.2009 01:10 13,6 C 14,2 C 13,6 C 14,1 C 14,1 C 0,5 C 90 % 98 % 0 % 1011,4 hPa 0,0 l/m 1,1 km/h (1 Bft) SO 135 0 min 0,0 UV-I 12,0 C 14,1 C 7,6 km/h (2 Bft)
01.10.2009 01:15 13,6 C 14,3 C 13,7 C 14,1 C 14,1 C 0,5 C 90 % 98 % 0 % 1011,4 hPa 0,0 l/m 0,6 km/h (0 Bft) W 270 0 min 0,0 UV-I 12,0 C 14,1 C 0,0 km/h (0 Bft)
01.10.2009 01:20 13,7 C 14,2 C 13,7 C 14,2 C 14,2 C 0,5 C 90 % 97 % 0 % 1011,4 hPa 0,0 l/m 1,1 km/h (1 Bft) S 180 0 min 0,0 UV-I 12,1 C 14,2 C 8,4 km/h (2 Bft)
01.10.2009 01:25 13,6 C 14,2 C 13,7 C 14,2 C 14,2 C 0,6 C 90 % 97 % 0 % 1011,1 hPa 0,0 l/m 1,6 km/h (1 Bft) SW 225 0 min 0,0 UV-I 12,0 C 14,2 C 0,0 km/h (0 Bft)
01.10.2009 01:30 13,7 C 14,3 C 13,7 C 14,1 C 14,1 C 0,4 C 89 % 97 % 0 % 1011,1 hPa 0,0 l/m 1,1 km/h (1 Bft) SW 225 0 min 0,0 UV-I 11,9 C 14,1 C 5,1 km/h (1 Bft)
01.10.2009 01:35 13,7 C 14,2 C 13,7 C 14,1 C 14,1 C 0,4 C 89 % 97 % 0 % 1011,1 hPa 0,0 l/m 0,8 km/h (0 Bft) SO 135 0 min 0,0 UV-I 11,9 C 14,1 C 0,0 km/h (0 Bft)
01.10.2009 01:40 13,7 C 14,3 C 13,9 C 14,1 C 14,1 C 0,4 C 89 % 96 % 0 % 1011,1 hPa 0,0 l/m 0,8 km/h (0 Bft) S-SO 157 0 min 0,0 UV-I 11,9 C 14,1 C 0,0 km/h (0 Bft)
01.10.2009 01:45 13,7 C 14,3 C 13,8 C 14,0 C 14,0 C 0,3 C 89 % 96 % 0 % 1011,2 hPa 0,0 l/m 0,5 km/h (0 Bft) SO 135 0 min 0,0 UV-I 11,9 C 14,0 C 1,9 km/h (1 Bft)
01.10.2009 01:50 13,7 C 14,3 C 13,8 C 14,1 C 14,1 C 0,4 C 89 % 96 % 0 % 1011,2 hPa 0,0 l/m 1,1 km/h (1 Bft) W-SW 247 0 min 0,0 UV-I 11,9 C 14,1 C 8,7 km/h (2 Bft)
01.10.2009 01:55 13,8 C 14,3 C 13,9 C 14,2 C 14,2 C 0,4 C 89 % 96 % 0 % 1011,2 hPa 0,0 l/m 1,4 km/h (1 Bft) S-SW 202 0 min 0,0 UV-I 12,0 C 14,2 C 7,1 km/h (2 Bft)
01.10.2009 02:00 13,9 C 14,3 C 13,9 C 14,3 C 14,3 C 0,4 C 89 % 96 % 0 % 1011,2 hPa 0,0 l/m 2,9 km/h (1 Bft) S-SO 157 0 min 0,0 UV-I 12,1 C 14,3 C 10,6 km/h (2 Bft)
01.10.2009 02:10 13,9 C 14,3 C 13,9 C 14,5 C 14,5 C 0,6 C 88 % 96 % 0 % 1010,8 hPa 0,0 l/m 3,7 km/h (1 Bft) SO 135 0 min 0,0 UV-I 11,9 C 14,5 C 3,9 km/h (1 Bft)
01.10.2009 02:15 13,9 C 14,3 C 13,9 C 14,5 C 14,5 C 0,6 C 88 % 96 % 0 % 1010,8 hPa 0,0 l/m 3,4 km/h (1 Bft) SW 225 0 min 0,0 UV-I 11,9 C 14,5 C 4,0 km/h (1 Bft)
01.10.2009 02:20 13,9 C 14,3 C 13,8 C 14,5 C 14,5 C 0,6 C 88 % 95 % 0 % 1010,8 hPa 0,0 l/m 3,4 km/h (1 Bft) SW 225 0 min 0,0 UV-I 11,9 C 14,5 C 4,8 km/h (1 Bft)
01.10.2009 02:25 13,9 C 14,3 C 13,8 C 14,5 C 14,5 C 0,6 C 88 % 95 % 0 % 1010,6 hPa 0,0 l/m 3,4 km/h (1 Bft) W-SW 247 0 min 0,0 UV-I 11,9 C 14,5 C 4,8 km/h (1 Bft)
01.10.2009 02:30 13,9 C 14,3 C 13,8 C 14,4 C 14,4 C 0,5 C 87 % 95 % 0 % 1010,6 hPa 0,0 l/m 2,7 km/h (1 Bft) W-SW 247 0 min 0,0 UV-I 11,8 C 14,4 C 3,4 km/h (1 Bft)
01.10.2009 02:35 13,8 C 14,3 C 13,9 C 14,3 C 14,3 C 0,5 C 87 % 95 % 0 % 1010,6 hPa 0,0 l/m 2,4 km/h (1 Bft) S 180 0 min 0,0 UV-I 11,7 C 14,3 C 5,6 km/h (1 Bft)
01.10.2009 02:40 13,9 C 14,3 C 13,9 C 14,3 C 14,3 C 0,4 C 87 % 94 % 0 % 1010,6 hPa 0,0 l/m 2,9 km/h (1 Bft) SW 225 0 min 0,0 UV-I 11,8 C 14,3 C 16,1 km/h (3 Bft)
01.10.2009 02:45 13,9 C 14,3 C 13,9 C 14,3 C 14,3 C 0,4 C 87 % 94 % 0 % 1010,9 hPa 0,0 l/m 3,2 km/h (1 Bft) N 360 0 min 0,0 UV-I 11,8 C 14,3 C 12,2 km/h (2 Bft)
01.10.2009 02:50 13,9 C 14,3 C 13,9 C 14,3 C 14,3 C 0,4 C 87 % 94 % 0 % 1010,9 hPa 0,0 l/m 2,9 km/h (1 Bft) N-NO 22 0 min 0,0 UV-I 11,8 C 14,3 C 0,0 km/h (0 Bft)
01.10.2009 02:55 14,0 C 14,3 C 13,9 C 14,3 C 14,3 C 0,3 C 87 % 94 % 0 % 1010,9 hPa 0,0 l/m 2,9 km/h (1 Bft) S 180 0 min 0,0 UV-I 11,9 C 14,3 C 5,6 km/h (1 Bft)
01.10.2009 03:00 14,0 C 14,3 C 13,9 C 14,4 C 14,4 C 0,4 C 87 % 94 % 0 % 1010,9 hPa 0,0 l/m 3,9 km/h (1 Bft) SO 135 0 min 0,0 UV-I 11,9 C 14,4 C 1,9 km/h (1 Bft)
01.10.2009 03:10 13,9 C 14,3 C 13,9 C 14,3 C 14,3 C 0,4 C 86 % 93 % 0 % 1010,4 hPa 0,0 l/m 3,2 km/h (1 Bft) W-NW 292 0 min 0,0 UV-I 11,6 C 14,3 C 3,7 km/h (1 Bft)
01.10.2009 03:15 13,9 C 14,3 C 13,8 C 14,3 C 14,3 C 0,4 C 86 % 93 % 0 % 1010,4 hPa 0,0 l/m 3,4 km/h (1 Bft) SO 135 0 min 0,0 UV-I 11,6 C 14,3 C 3,9 km/h (1 Bft)
01.10.2009 03:20 13,9 C 14,3 C 13,9 C 14,3 C 14,3 C 0,4 C 86 % 93 % 0 % 1010,4 hPa 0,0 l/m 3,9 km/h (1 Bft) S 180 0 min 0,0 UV-I 11,6 C 14,3 C 5,6 km/h (1 Bft)
01.10.2009 03:25 13,9 C 14,3 C 13,9 C 14,3 C 14,3 C 0,4 C 86 % 93 % 0 % 1010,2 hPa 0,0 l/m 4,0 km/h (1 Bft) SW 225 0 min 0,0 UV-I 11,6 C 14,3 C 8,0 km/h (2 Bft)
01.10.2009 03:30 14,0 C 14,3 C 13,9 C 14,3 C 14,3 C 0,3 C 86 % 93 % 0 % 1010,2 hPa 0,0 l/m 2,9 km/h (1 Bft) S-SO 157 0 min 0,0 UV-I 11,7 C 14,3 C 0,0 km/h (0 Bft)
01.10.2009 03:35 13,9 C 14,3 C 13,9 C 14,3 C 14,3 C 0,4 C 86 % 93 % 0 % 1010,2 hPa 0,0 l/m 2,7 km/h (1 Bft) S-SO 157 0 min 0,0 UV-I 11,6 C 14,3 C 1,8 km/h (1 Bft)
01.10.2009 03:40 14,0 C 14,3 C 13,9 C 14,3 C 14,3 C 0,3 C 86 % 92 % 0 % 1010,2 hPa 0,0 l/m 2,1 km/h (1 Bft) S 180 0 min 0,0 UV-I 11,7 C 14,3 C 2,1 km/h (1 Bft)
01.10.2009 03:45 13,9 C 14,3 C 13,9 C 14,3 C 14,3 C 0,4 C 86 % 93 % 0 % 1010,2 hPa 0,0 l/m 2,1 km/h (1 Bft) N-NO 22 0 min 0,0 UV-I 11,6 C 14,3 C 6,1 km/h (2 Bft)
01.10.2009 03:50 14,0 C 14,3 C 13,9 C 14,3 C 14,3 C 0,3 C 86 % 92 % 0 % 1010,2 hPa 0,0 l/m 2,3 km/h (1 Bft) W-NW 292 0 min 0,0 UV-I 11,7 C 14,3 C 0,0 km/h (0 Bft)
01.10.2009 03:55 14,0 C 14,3 C 13,9 C 14,2 C 14,2 C 0,2 C 86 % 92 % 0 % 1010,2 hPa 0,0 l/m 1,8 km/h (1 Bft) S 180 0 min 0,0 UV-I 11,7 C 14,2 C 1,9 km/h (1 Bft)
01.10.2009 04:00 13,9 C 14,3 C 13,9 C 14,0 C 14,0 C 0,1 C 86 % 92 % 0 % 1010,2 hPa 0,0 l/m 1,3 km/h (1 Bft) SO 135 0 min 0,0 UV-I 11,6 C 14,0 C 3,2 km/h (1 Bft)
01.10.2009 04:06 13,9 C 14,3 C 13,7 C 14,0 C 14,0 C 0,1 C 86 % 92 % 0 % 1009,9 hPa 0,0 l/m 1,3 km/h (1 Bft) S-SW 202 0 min 0,0 UV-I 11,6 C 14,0 C 2,7 km/h (1 Bft)
01.10.2009 04:10 13,9 C 14,3 C 13,7 C 14,0 C 14,0 C 0,1 C 86 % 92 % 0 % 1009,9 hPa 0,0 l/m 1,3 km/h (1 Bft) S-SW 202 0 min 0,0 UV-I 11,6 C 14,0 C 2,7 km/h (1 Bft)
01.10.2009 04:15 13,9 C 14,3 C 13,6 C 14,0 C 14,0 C 0,1 C 86 % 93 % 0 % 1009,9 hPa 0,0 l/m 1,6 km/h (1 Bft) S-SW 202 0 min 0,0 UV-I 11,6 C 14,0 C 3,4 km/h (1 Bft)
01.10.2009 04:20 13,9 C 14,3 C 13,6 C 13,9 C 13,9 C 0,0 C 86 % 92 % 0 % 1009,9 hPa 0,0 l/m 2,1 km/h (1 Bft) O-SO 112 0 min 0,0 UV-I 11,6 C 13,9 C 2,1 km/h (1 Bft)
01.10.2009 04:25 13,9 C 14,3 C 13,6 C 13,9 C 13,9 C 0,0 C 86 % 92 % 0 % 1009,8 hPa 0,0 l/m 1,8 km/h (1 Bft) S-SO 157 0 min 0,0 UV-I 11,6 C 13,9 C 5,5 km/h (1 Bft)
01.10.2009 04:30 13,8 C 14,3 C 13,6 C 13,9 C 13,9 C 0,1 C 86 % 91 % 0 % 1009,8 hPa 0,0 l/m 1,6 km/h (1 Bft) S-SO 157 0 min 0,0 UV-I 11,5 C 13,9 C 0,0 km/h (0 Bft)
01.10.2009 04:35 13,9 C 14,4 C 13,7 C 13,9 C 13,9 C 0,0 C 86 % 91 % 0 % 1009,8 hPa 0,0 l/m 1,8 km/h (1 Bft) SW 225 0 min 0,0 UV-I 11,6 C 13,9 C 3,7 km/h (1 Bft)
01.10.2009 04:40 13,9 C 14,3 C 13,6 C 13,9 C 13,9 C 0,0 C 86 % 91 % 0 % 1009,8 hPa 0,0 l/m 2,1 km/h (1 Bft) N-NO 22 0 min 0,0 UV-I 11,6 C 13,9 C 4,3 km/h (1 Bft)
01.10.2009 04:45 13,9 C 14,3 C 13,6 C 13,9 C 13,8 C 0,0 C 86 % 91 % 0 % 1009,8 hPa 0,0 l/m 1,6 km/h (1 Bft) NO 45 0 min 0,0 UV-I 11,6 C 13,8 C 4,5 km/h (1 Bft)
01.10.2009 04:50 13,8 C 14,3 C 13,6 C 13,8 C 13,8 C 0,0 C 86 % 91 % 0 % 1009,8 hPa 0,0 l/m 1,0 km/h (0 Bft) W 270 0 min 0,0 UV-I 11,5 C 13,8 C 1,8 km/h (1 Bft)
01.10.2009 04:55 13,8 C 14,3 C 13,6 C 13,8 C 13,8 C 0,0 C 86 % 91 % 0 % 1009,8 hPa 0,0 l/m 1,4 km/h (1 Bft) SW 225 0 min 0,0 UV-I 11,5 C 13,8 C 5,0 km/h (1 Bft)
01.10.2009 05:00 13,8 C 14,3 C 13,6 C 13,8 C 13,8 C 0,0 C 86 % 91 % 0 % 1009,8 hPa 0,0 l/m 1,3 km/h (1 Bft) SO 135 0 min 0,0 UV-I 11,5 C 13,8 C 0,0 km/h (0 Bft)
01.10.2009 05:10 13,8 C 14,4 C 13,6 C 13,8 C 13,8 C 0,0 C 86 % 91 % 0 % 1009,5 hPa 0,0 l/m 2,1 km/h (1 Bft) SW 225 0 min 0,0 UV-I 11,5 C 13,8 C 0,0 km/h (0 Bft)
01.10.2009 05:15 13,9 C 14,4 C 13,6 C 13,9 C 13,9 C 0,0 C 86 % 90 % 0 % 1009,5 hPa 0,0 l/m 2,3 km/h (1 Bft) SO 135 0 min 0,0 UV-I 11,6 C 13,9 C 4,0 km/h (1 Bft)
01.10.2009 05:20 13,8 C 14,4 C 13,6 C 13,8 C 13,8 C 0,0 C 86 % 90 % 0 % 1009,5 hPa 0,0 l/m 1,0 km/h (0 Bft) S-SW 202 0 min 0,0 UV-I 11,5 C 13,8 C 5,5 km/h (1 Bft)
01.10.2009 05:25 13,8 C 14,4 C 13,7 C 13,9 C 13,9 C 0,1 C 86 % 90 % 0 % 1009,4 hPa 0,0 l/m 1,3 km/h (1 Bft) S 180 0 min 0,0 UV-I 11,5 C 13,9 C 4,8 km/h (1 Bft)
01.10.2009 05:30 13,8 C 14,4 C 13,6 C 13,9 C 13,9 C 0,1 C 86 % 90 % 0 % 1009,4 hPa 0,0 l/m 2,3 km/h (1 Bft) S-SO 157 0 min 0,0 UV-I 11,5 C 13,9 C 0,0 km/h (0 Bft)
01.10.2009 05:35 13,7 C 14,4 C 13,6 C 13,9 C 13,9 C 0,2 C 86 % 90 % 0 % 1009,4 hPa 0,0 l/m 2,1 km/h (1 Bft) S 180 0 min 0,0 UV-I 11,4 C 13,9 C 3,9 km/h (1 Bft)
01.10.2009 05:40 13,8 C 14,4 C 13,6 C 13,9 C 13,9 C 0,1 C 86 % 90 % 0 % 1009,4 hPa 0,0 l/m 1,3 km/h (1 Bft) O-NO 67 0 min 0,0 UV-I 11,5 C 13,9 C 0,0 km/h (0 Bft)
01.10.2009 05:45 13,8 C 14,4 C 13,6 C 13,9 C 13,9 C 0,1 C 86 % 90 % 0 % 1009,5 hPa 0,0 l/m 1,4 km/h (1 Bft) O-SO 112 0 min 0,0 UV-I 11,5 C 13,9 C 0,0 km/h (0 Bft)
01.10.2009 05:50 13,7 C 14,4 C 13,7 C 13,9 C 13,9 C 0,2 C 86 % 90 % 0 % 1009,5 hPa 0,0 l/m 1,6 km/h (1 Bft) S-SW 202 0 min 0,0 UV-I 11,4 C 13,9 C 0,0 km/h (0 Bft)
01.10.2009 05:55 13,8 C 14,4 C 13,7 C 13,9 C 13,9 C 0,1 C 86 % 89 % 0 % 1009,5 hPa 0,0 l/m 1,8 km/h (1 Bft) S-SO 157 0 min 0,0 UV-I 11,5 C 13,9 C 1,9 km/h (1 Bft)
01.10.2009 06:00 13,9 C 14,4 C 13,7 C 13,9 C 13,9 C 0,0 C 86 % 89 % 0 % 1009,5 hPa 0,0 l/m 2,1 km/h (1 Bft) S 180 0 min 0,0 UV-I 11,6 C 13,9 C 3,5 km/h (1 Bft)
01.10.2009 06:06 13,7 C 14,4 C 13,6 C 13,8 C 13,8 C 0,1 C 86 % 89 % 0 % 1009,9 hPa 0,0 l/m 1,3 km/h (1 Bft) S 180 0 min 0,0 UV-I 11,4 C 13,8 C 0,0 km/h (0 Bft)
01.10.2009 06:10 13,7 C 14,4 C 13,6 C 13,8 C 13,8 C 0,1 C 86 % 89 % 0 % 1009,9 hPa 0,0 l/m 1,3 km/h (1 Bft) S 180 0 min 0,0 UV-I 11,4 C 13,8 C 0,0 km/h (0 Bft)
01.10.2009 06:15 13,7 C 14,4 C 13,6 C 13,8 C 13,8 C 0,1 C 86 % 89 % 0 % 1009,9 hPa 0,0 l/m 1,1 km/h (1 Bft) O-SO 112 0 min 0,0 UV-I 11,4 C 13,8 C 2,6 km/h (1 Bft)
01.10.2009 06:20 13,7 C 14,4 C 13,5 C 13,8 C 13,8 C 0,1 C 86 % 89 % 0 % 1009,9 hPa 0,0 l/m 1,3 km/h (1 Bft) O-SO 112 0 min 0,0 UV-I 11,4 C 13,8 C 0,0 km/h (0 Bft)
01.10.2009 06:25 13,7 C 14,4 C 13,5 C 13,8 C 13,8 C 0,1 C 86 % 89 % 0 % 1009,1 hPa 0,0 l/m 1,4 km/h (1 Bft) S 180 0 min 0,0 UV-I 11,4 C 13,8 C 2,4 km/h (1 Bft)
01.10.2009 06:30 13,7 C 14,4 C 13,5 C 13,8 C 13,8 C 0,1 C 86 % 89 % 0 % 1009,1 hPa 0,0 l/m 1,6 km/h (1 Bft) S 180 0 min 0,0 UV-I 11,4 C 13,8 C 0,0 km/h (0 Bft)
01.10.2009 06:35 13,7 C 14,4 C 13,5 C 13,8 C 13,8 C 0,1 C 86 % 89 % 0 % 1009,1 hPa 0,0 l/m 2,1 km/h (1 Bft) S-SO 157 0 min 0,0 UV-I 11,4 C 13,8 C 2,9 km/h (1 Bft)
01.10.2009 06:40 13,7 C 14,4 C 13,5 C 13,9 C 13,9 C 0,2 C 86 % 89 % 0 % 1009,1 hPa 0,0 l/m 3,2 km/h (1 Bft) W 270 0 min 0,0 UV-I 11,4 C 13,9 C 3,7 km/h (1 Bft)
01.10.2009 06:45 13,7 C 14,4 C 13,5 C 13,8 C 13,8 C 0,1 C 86 % 90 % 0 % 1009,1 hPa 0,0 l/m 3,2 km/h (1 Bft) SW 225 0 min 0,0 UV-I 11,4 C 13,8 C 4,2 km/h (1 Bft)
01.10.2009 06:50 13,7 C 14,4 C 13,5 C 13,8 C 13,8 C 0,1 C 86 % 90 % 0 % 1009,1 hPa 0,0 l/m 2,6 km/h (1 Bft) S 180 0 min 0,0 UV-I 11,4 C 13,8 C 5,3 km/h (1 Bft)
01.10.2009 06:55 13,7 C 14,4 C 13,5 C 13,8 C 13,8 C 0,1 C 86 % 90 % 0 % 1009,1 hPa 0,0 l/m 3,2 km/h (1 Bft) SW 225 0 min 0,0 UV-I 11,4 C 13,8 C 3,7 km/h (1 Bft)
01.10.2009 07:00 13,7 C 14,4 C 13,5 C 13,8 C 13,8 C 0,1 C 86 % 90 % 0 % 1009,1 hPa 0,0 l/m 3,2 km/h (1 Bft) S-SO 157 0 min 0,0 UV-I 11,4 C 13,8 C 3,1 km/h (1 Bft)
01.10.2009 07:10 13,7 C 14,4 C 13,5 C 13,8 C 13,8 C 0,1 C 87 % 90 % 0 % 1009,1 hPa 0,0 l/m 3,5 km/h (1 Bft) S 180 0 min 0,0 UV-I 11,6 C 13,8 C 0,0 km/h (0 Bft)
01.10.2009 07:15 13,7 C 14,4 C 13,4 C 13,7 C 13,7 C 0,0 C 87 % 90 % 0 % 1009,1 hPa 0,0 l/m 2,7 km/h (1 Bft) SW 225 0 min 0,0 UV-I 11,6 C 13,7 C 4,5 km/h (1 Bft)
01.10.2009 07:20 13,8 C 14,4 C 13,5 C 13,8 C 13,7 C 0,0 C 87 % 90 % 0 % 1009,1 hPa 0,0 l/m 2,7 km/h (1 Bft) W-SW 247 0 min 0,0 UV-I 11,7 C 13,7 C 8,9 km/h (2 Bft)
01.10.2009 07:25 13,7 C 14,4 C 13,4 C 13,7 C 13,7 C 0,0 C 87 % 90 % 0 % 1009,0 hPa 0,0 l/m 3,5 km/h (1 Bft) S-SW 202 0 min 0,0 UV-I 11,6 C 13,7 C 6,9 km/h (2 Bft)
01.10.2009 07:30 13,9 C 14,4 C 13,5 C 13,9 C 13,8 C 0,0 C 87 % 90 % 0 % 1009,0 hPa 0,0 l/m 2,7 km/h (1 Bft) O-SO 112 0 min 0,0 UV-I 11,8 C 13,8 C 2,1 km/h (1 Bft)
01.10.2009 07:35 13,7 C 14,4 C 13,5 C 13,7 C 13,7 C 0,0 C 87 % 90 % 0 % 1009,0 hPa 0,0 l/m 3,2 km/h (1 Bft) SW 225 0 min 0,0 UV-I 11,6 C 13,7 C 6,1 km/h (2 Bft)
01.10.2009 07:40 13,7 C 14,4 C 13,5 C 13,7 C 13,7 C 0,0 C 87 % 90 % 0 % 1009,0 hPa 0,0 l/m 2,6 km/h (1 Bft) SW 225 0 min 0,0 UV-I 11,6 C 13,7 C 4,3 km/h (1 Bft)
01.10.2009 07:45 13,7 C 14,5 C 13,5 C 13,7 C 13,7 C 0,0 C 87 % 90 % 0 % 1009,2 hPa 0,0 l/m 2,7 km/h (1 Bft) S 180 0 min 0,0 UV-I 11,6 C 13,7 C 5,1 km/h (1 Bft)
01.10.2009 07:50 13,7 C 14,5 C 13,5 C 13,7 C 13,7 C 0,0 C 87 % 90 % 0 % 1009,2 hPa 0,0 l/m 2,7 km/h (1 Bft) SO 135 0 min 0,0 UV-I 11,6 C 13,7 C 4,0 km/h (1 Bft)
01.10.2009 07:55 13,8 C 14,4 C 13,6 C 13,8 C 13,7 C 0,0 C 87 % 90 % 0 % 1009,2 hPa 0,0 l/m 2,1 km/h (1 Bft) S 180 0 min 0,0 UV-I 11,7 C 13,7 C 1,6 km/h (1 Bft)
01.10.2009 08:00 13,7 C 14,5 C 13,5 C 13,8 C 13,8 C 0,1 C 87 % 91 % 3 % 1009,2 hPa 0,0 l/m 1,9 km/h (1 Bft) SO 135 0 min 0,0 UV-I 11,6 C 13,8 C 0,0 km/h (0 Bft)
01.10.2009 08:06 13,8 C 14,5 C 13,5 C 13,8 C 13,8 C 0,0 C 87 % 90 % 0 % 1008,9 hPa 0,0 l/m 1,0 km/h (0 Bft) O-SO 112 0 min 0,0 UV-I 11,7 C 13,8 C 2,1 km/h (1 Bft)
01.10.2009 08:10 13,8 C 14,5 C 13,5 C 13,8 C 13,8 C 0,0 C 87 % 90 % 0 % 1008,9 hPa 0,0 l/m 1,0 km/h (0 Bft) O-SO 112 0 min 0,0 UV-I 11,7 C 13,8 C 2,1 km/h (1 Bft)
01.10.2009 08:15 13,9 C 14,5 C 13,5 C 13,9 C 13,8 C 0,0 C 87 % 90 % 0 % 1008,9 hPa 0,0 l/m 1,6 km/h (1 Bft) O 90 0 min 0,0 UV-I 11,8 C 13,8 C 0,0 km/h (0 Bft)
01.10.2009 08:20 13,9 C 14,5 C 13,5 C 13,9 C 13,9 C 0,0 C 87 % 90 % 0 % 1008,9 hPa 0,0 l/m 2,1 km/h (1 Bft) W-SW 247 0 min 0,0 UV-I 11,8 C 13,9 C 2,6 km/h (1 Bft)
01.10.2009 08:25 13,9 C 14,5 C 13,6 C 13,9 C 13,9 C 0,0 C 87 % 90 % 0 % 1009,1 hPa 0,0 l/m 1,9 km/h (1 Bft) S-SO 157 0 min 0,0 UV-I 11,8 C 13,9 C 5,1 km/h (1 Bft)
01.10.2009 08:30 13,9 C 14,5 C 13,6 C 14,0 C 14,0 C 0,1 C 87 % 90 % 3 % 1009,1 hPa 0,0 l/m 3,2 km/h (1 Bft) S-SW 202 0 min 0,0 UV-I 11,8 C 14,0 C 10,8 km/h (2 Bft)
01.10.2009 08:35 13,8 C 14,5 C 13,7 C 14,0 C 14,0 C 0,2 C 87 % 90 % 5 % 1009,1 hPa 0,0 l/m 3,9 km/h (1 Bft) S-SW 202 0 min 0,0 UV-I 11,7 C 14,0 C 6,1 km/h (2 Bft)
01.10.2009 08:40 13,8 C 14,5 C 13,6 C 14,1 C 14,1 C 0,3 C 87 % 90 % 8 % 1009,1 hPa 0,0 l/m 3,1 km/h (1 Bft) S 180 0 min 0,0 UV-I 11,7 C 14,1 C 3,5 km/h (1 Bft)
01.10.2009 08:45 13,8 C 14,5 C 13,7 C 14,1 C 14,1 C 0,3 C 87 % 90 % 8 % 1009,1 hPa 0,0 l/m 2,1 km/h (1 Bft) W-SW 247 0 min 0,0 UV-I 11,7 C 14,1 C 3,2 km/h (1 Bft)
01.10.2009 08:50 13,9 C 14,5 C 13,7 C 14,3 C 14,3 C 0,4 C 87 % 90 % 11 % 1009,1 hPa 0,0 l/m 2,3 km/h (1 Bft) S 180 0 min 0,0 UV-I 11,8 C 14,3 C 1,9 km/h (1 Bft)
01.10.2009 08:55 13,9 C 14,5 C 13,8 C 14,3 C 14,3 C 0,4 C 87 % 90 % 11 % 1009,1 hPa 0,0 l/m 2,4 km/h (1 Bft) W 270 0 min 0,0 UV-I 11,8 C 14,3 C 6,1 km/h (2 Bft)
01.10.2009 09:00 13,9 C 14,5 C 13,7 C 14,4 C 14,4 C 0,5 C 87 % 89 % 13 % 1009,1 hPa 0,0 l/m 2,4 km/h (1 Bft) SW 225 0 min 0,0 UV-I 11,8 C 14,4 C 2,4 km/h (1 Bft)
01.10.2009 09:06 14,0 C 14,5 C 13,7 C 14,5 C 14,5 C 0,5 C 87 % 89 % 13 % 1009,0 hPa 0,0 l/m 4,5 km/h (1 Bft) SW 225 0 min 0,0 UV-I 11,9 C 14,5 C 8,9 km/h (2 Bft)
01.10.2009 09:10 14,0 C 14,5 C 13,7 C 14,5 C 14,5 C 0,5 C 87 % 89 % 13 % 1009,0 hPa 0,0 l/m 4,5 km/h (1 Bft) SW 225 0 min 0,0 UV-I 11,9 C 14,5 C 8,9 km/h (2 Bft)
01.10.2009 09:15 14,0 C 14,4 C 13,9 C 14,7 C 14,7 C 0,7 C 86 % 89 % 18 % 1009,0 hPa 0,0 l/m 5,1 km/h (1 Bft) W-SW 247 0 min 0,0 UV-I 11,7 C 14,7 C 5,3 km/h (1 Bft)
01.10.2009 09:20 14,1 C 14,5 C 13,9 C 15,0 C 15,0 C 0,9 C 86 % 89 % 24 % 1009,0 hPa 0,0 l/m 4,3 km/h (1 Bft) SW 225 0 min 0,1 UV-I 11,8 C 15,0 C 18,2 km/h (3 Bft)
01.10.2009 09:25 14,3 C 14,4 C 14,1 C 15,2 C 15,2 C 0,9 C 86 % 89 % 24 % 1008,9 hPa 0,0 l/m 5,0 km/h (1 Bft) S-SW 202 0 min 0,1 UV-I 12,0 C 15,2 C 15,4 km/h (3 Bft)
01.10.2009 09:30 14,3 C 14,5 C 14,2 C 15,5 C 15,5 C 1,2 C 85 % 88 % 32 % 1008,9 hPa 0,0 l/m 6,6 km/h (2 Bft) S 180 0 min 0,1 UV-I 11,8 C 15,5 C 10,0 km/h (2 Bft)
01.10.2009 09:35 14,3 C 14,5 C 14,3 C 15,4 C 15,4 C 1,1 C 85 % 88 % 29 % 1008,9 hPa 0,0 l/m 8,0 km/h (2 Bft) SW 225 0 min 0,1 UV-I 11,8 C 15,4 C 15,8 km/h (3 Bft)
01.10.2009 09:40 14,4 C 14,5 C 14,2 C 15,4 C 15,3 C 1,0 C 85 % 88 % 26 % 1008,9 hPa 0,0 l/m 8,0 km/h (2 Bft) SO 135 0 min 0,0 UV-I 11,9 C 15,3 C 6,1 km/h (2 Bft)
01.10.2009 09:45 14,4 C 14,4 C 14,3 C 15,3 C 15,2 C 0,9 C 84 % 87 % 24 % 1009,1 hPa 0,0 l/m 8,0 km/h (2 Bft) S-SO 157 0 min 0,1 UV-I 11,7 C 15,2 C 7,2 km/h (2 Bft)
01.10.2009 09:50 14,5 C 14,5 C 14,3 C 15,4 C 15,4 C 0,9 C 84 % 86 % 24 % 1009,1 hPa 0,0 l/m 7,4 km/h (2 Bft) S-SW 202 0 min 0,2 UV-I 11,8 C 15,4 C 12,7 km/h (3 Bft)
01.10.2009 09:55 14,4 C 14,5 C 14,4 C 15,5 C 15,5 C 1,1 C 84 % 86 % 29 % 1009,1 hPa 0,0 l/m 7,4 km/h (2 Bft) S-SW 202 0 min 0,2 UV-I 11,7 C 15,5 C 10,0 km/h (2 Bft)
01.10.2009 10:00 14,5 C 14,5 C 14,5 C 15,4 C 15,3 C 0,9 C 83 % 85 % 24 % 1009,1 hPa 0,0 l/m 9,5 km/h (2 Bft) SW 225 0 min 0,2 UV-I 11,6 C 15,3 C 18,8 km/h (3 Bft)
01.10.2009 10:10 14,6 C 14,5 C 14,4 C 15,4 C 15,4 C 0,8 C 83 % 85 % 21 % 1008,8 hPa 0,0 l/m 9,3 km/h (2 Bft) S 180 0 min 0,1 UV-I 11,7 C 15,4 C 13,8 km/h (3 Bft)
01.10.2009 10:15 14,6 C 14,5 C 14,5 C 15,4 C 15,3 C 0,8 C 83 % 85 % 21 % 1008,8 hPa 0,0 l/m 9,5 km/h (2 Bft) W-SW 247 0 min 0,2 UV-I 11,7 C 15,3 C 9,7 km/h (2 Bft)
01.10.2009 10:20 14,6 C 14,5 C 14,5 C 15,6 C 15,7 C 1,0 C 83 % 86 % 26 % 1008,8 hPa 0,0 l/m 8,5 km/h (2 Bft) W-SW 247 0 min 0,3 UV-I 11,7 C 15,7 C 19,6 km/h (3 Bft)
01.10.2009 10:25 14,7 C 14,5 C 14,7 C 15,7 C 15,6 C 1,0 C 83 % 85 % 26 % 1008,4 hPa 0,0 l/m 8,7 km/h (2 Bft) W-SW 247 0 min 0,2 UV-I 11,8 C 15,6 C 14,6 km/h (3 Bft)
01.10.2009 10:30 14,8 C 14,5 C 14,6 C 15,7 C 15,7 C 0,9 C 83 % 85 % 24 % 1008,4 hPa 0,0 l/m 8,5 km/h (2 Bft) S 180 0 min 0,2 UV-I 11,9 C 15,7 C 22,2 km/h (4 Bft)
01.10.2009 10:35 14,7 C 14,5 C 14,7 C 15,7 C 15,6 C 1,0 C 83 % 85 % 26 % 1008,4 hPa 0,0 l/m 8,9 km/h (2 Bft) S 180 0 min 0,3 UV-I 11,8 C 15,6 C 8,9 km/h (2 Bft)
01.10.2009 10:40 14,8 C 14,5 C 14,6 C 15,6 C 15,6 C 0,8 C 82 % 84 % 21 % 1008,4 hPa 0,0 l/m 9,8 km/h (2 Bft) SW 225 0 min 0,3 UV-I 11,8 C 15,6 C 12,2 km/h (2 Bft)
01.10.2009 10:45 14,9 C 14,5 C 14,7 C 15,6 C 15,6 C 0,7 C 82 % 84 % 18 % 1008,1 hPa 0,0 l/m 9,7 km/h (2 Bft) W-SW 247 0 min 0,3 UV-I 11,9 C 15,6 C 10,1 km/h (2 Bft)
01.10.2009 10:50 14,8 C 14,5 C 14,8 C 15,8 C 15,8 C 1,0 C 82 % 84 % 26 % 1008,1 hPa 0,0 l/m 7,9 km/h (2 Bft) S-SW 202 0 min 0,3 UV-I 11,8 C 15,8 C 7,1 km/h (2 Bft)
01.10.2009 10:55 14,9 C 14,5 C 14,8 C 15,9 C 15,9 C 1,0 C 82 % 84 % 26 % 1008,1 hPa 0,0 l/m 8,0 km/h (2 Bft) SW 225 0 min 0,4 UV-I 11,9 C 15,9 C 9,7 km/h (2 Bft)
01.10.2009 11:00 15,1 C 14,5 C 14,8 C 16,2 C 16,2 C 1,1 C 82 % 84 % 29 % 1008,1 hPa 0,0 l/m 7,2 km/h (2 Bft) SW 225 0 min 0,6 UV-I 12,0 C 16,2 C 8,5 km/h (2 Bft)
01.10.2009 11:06 15,1 C 14,5 C 15,1 C 16,2 C 16,1 C 1,1 C 81 % 83 % 29 % 1008,7 hPa 0,0 l/m 11,6 km/h (2 Bft) W-SW 247 0 min 0,5 UV-I 11,9 C 16,1 C 12,1 km/h (2 Bft)
01.10.2009 11:10 15,1 C 14,5 C 15,1 C 16,1 C 16,1 C 1,0 C 81 % 83 % 26 % 1008,7 hPa 0,0 l/m 11,6 km/h (2 Bft) W-SW 247 0 min 0,5 UV-I 11,9 C 16,1 C 23,7 km/h (4 Bft)
01.10.2009 11:15 15,1 C 14,5 C 15,1 C 16,1 C 16,0 C 1,0 C 81 % 83 % 26 % 1008,7 hPa 0,0 l/m 10,9 km/h (2 Bft) S-SW 202 0 min 0,7 UV-I 11,9 C 16,0 C 14,3 km/h (3 Bft)
01.10.2009 11:20 15,2 C 14,5 C 15,2 C 16,4 C 16,5 C 1,2 C 81 % 83 % 32 % 1008,7 hPa 0,0 l/m 11,1 km/h (2 Bft) SW 225 0 min 0,9 UV-I 12,0 C 16,5 C 20,3 km/h (4 Bft)
01.10.2009 11:25 15,3 C 14,5 C 15,3 C 16,7 C 16,7 C 1,4 C 81 % 83 % 37 % 1008,5 hPa 0,0 l/m 12,1 km/h (2 Bft) SW 225 0 min 0,8 UV-I 12,1 C 16,7 C 13,2 km/h (3 Bft)
01.10.2009 11:30 15,5 C 14,5 C 15,4 C 16,7 C 16,6 C 1,2 C 81 % 81 % 32 % 1008,5 hPa 0,0 l/m 12,4 km/h (3 Bft) S 180 0 min 0,8 UV-I 12,3 C 16,6 C 13,7 km/h (3 Bft)
01.10.2009 11:35 15,5 C 14,5 C 15,5 C 16,7 C 16,7 C 1,2 C 81 % 82 % 32 % 1008,5 hPa 0,0 l/m 11,7 km/h (2 Bft) SW 225 0 min 0,7 UV-I 12,3 C 16,7 C 7,1 km/h (2 Bft)
01.10.2009 11:40 15,5 C 14,5 C 15,5 C 17,0 C 17,2 C 1,5 C 81 % 82 % 39 % 1008,5 hPa 0,0 l/m 10,6 km/h (2 Bft) W-SW 247 0 min 0,8 UV-I 12,3 C 17,2 C 24,5 km/h (4 Bft)
01.10.2009 11:45 15,5 C 14,5 C 15,5 C 17,2 C 17,2 C 1,7 C 81 % 82 % 45 % 1008,2 hPa 0,0 l/m 10,6 km/h (2 Bft) W-SW 247 0 min 0,5 UV-I 12,3 C 17,2 C 14,8 km/h (3 Bft)
01.10.2009 11:50 15,5 C 14,5 C 15,6 C 16,9 C 16,7 C 1,4 C 80 % 81 % 37 % 1008,2 hPa 0,0 l/m 10,9 km/h (2 Bft) SW 225 0 min 0,6 UV-I 12,1 C 16,7 C 14,2 km/h (3 Bft)
01.10.2009 11:55 15,6 C 14,5 C 15,6 C 17,1 C 17,1 C 1,5 C 81 % 82 % 39 % 1008,2 hPa 0,0 l/m 10,0 km/h (2 Bft) S 180 0 min 0,7 UV-I 12,3 C 17,1 C 8,0 km/h (2 Bft)
01.10.2009 12:00 15,7 C 14,6 C 15,7 C 17,4 C 17,4 C 1,7 C 80 % 81 % 45 % 1008,2 hPa 0,0 l/m 9,2 km/h (2 Bft) S 180 0 min 0,8 UV-I 12,3 C 17,4 C 13,7 km/h (3 Bft)
01.10.2009 12:10 16,0 C 14,5 C 16,1 C 18,0 C 18,0 C 2,0 C 79 % 79 % 53 % 1008,4 hPa 0,0 l/m 8,7 km/h (2 Bft) S 180 0 min 1,1 UV-I 12,4 C 18,0 C 16,9 km/h (3 Bft)
01.10.2009 12:15 16,1 C 14,5 C 16,3 C 18,3 C 18,3 C 2,2 C 78 % 79 % 58 % 1008,4 hPa 0,0 l/m 10,9 km/h (2 Bft) SW 225 0 min 1,1 UV-I 12,3 C 18,3 C 19,8 km/h (3 Bft)
01.10.2009 12:20 16,0 C 14,5 C 16,3 C 18,0 C 17,8 C 2,0 C 77 % 77 % 53 % 1008,4 hPa 0,0 l/m 13,8 km/h (3 Bft) SW 225 0 min 0,7 UV-I 12,0 C 17,8 C 26,2 km/h (4 Bft)
01.10.2009 12:25 16,1 C 14,5 C 16,3 C 17,8 C 17,8 C 1,7 C 77 % 79 % 45 % 1007,7 hPa 0,0 l/m 12,4 km/h (3 Bft) S-SW 202 0 min 0,9 UV-I 12,1 C 17,8 C 10,6 km/h (2 Bft)
01.10.2009 12:30 16,1 C 14,5 C 16,3 C 17,9 C 17,9 C 1,8 C 77 % 77 % 47 % 1007,7 hPa 0,0 l/m 11,1 km/h (2 Bft) SW 225 0 min 0,6 UV-I 12,1 C 17,9 C 22,7 km/h (4 Bft)
01.10.2009 12:35 16,0 C 14,5 C 16,1 C 17,7 C 17,6 C 1,7 C 76 % 77 % 45 % 1007,7 hPa 0,0 l/m 13,2 km/h (3 Bft) W 270 0 min 0,5 UV-I 11,8 C 17,6 C 22,9 km/h (4 Bft)
01.10.2009 12:40 16,0 C 14,5 C 16,0 C 17,4 C 17,2 C 1,4 C 77 % 77 % 37 % 1007,7 hPa 0,0 l/m 12,1 km/h (2 Bft) S 180 0 min 0,5 UV-I 12,0 C 17,2 C 31,5 km/h (5 Bft)
01.10.2009 12:45 16,0 C 14,5 C 16,1 C 17,3 C 17,3 C 1,3 C 77 % 77 % 34 % 1007,9 hPa 0,0 l/m 10,1 km/h (2 Bft) S 180 0 min 0,5 UV-I 12,0 C 17,3 C 18,5 km/h (3 Bft)
01.10.2009 12:50 16,1 C 14,5 C 16,1 C 17,4 C 17,4 C 1,3 C 76 % 77 % 34 % 1007,9 hPa 0,0 l/m 10,6 km/h (2 Bft) W-SW 247 0 min 1,0 UV-I 11,9 C 17,4 C 18,8 km/h (3 Bft)
01.10.2009 12:55 16,1 C 14,5 C 16,1 C 17,5 C 17,5 C 1,4 C 75 % 76 % 37 % 1007,9 hPa 0,0 l/m 12,1 km/h (2 Bft) W-SW 247 0 min 0,8 UV-I 11,7 C 17,5 C 9,2 km/h (2 Bft)
01.10.2009 13:00 16,1 C 14,5 C 16,1 C 17,5 C 17,5 C 1,4 C 76 % 77 % 37 % 1007,9 hPa 0,0 l/m 10,9 km/h (2 Bft) S 180 0 min 0,3 UV-I 11,9 C 17,5 C 15,3 km/h (3 Bft)
01.10.2009 13:10 16,2 C 14,5 C 16,0 C 17,0 C 16,7 C 0,8 C 76 % 77 % 21 % 1008,3 hPa 0,0 l/m 11,7 km/h (2 Bft) W-SW 247 0 min 0,8 UV-I 12,0 C 16,7 C 10,1 km/h (2 Bft)
01.10.2009 13:15 16,2 C 14,5 C 16,0 C 17,0 C 17,1 C 0,8 C 75 % 76 % 21 % 1008,3 hPa 0,0 l/m 11,9 km/h (2 Bft) SW 225 0 min 0,7 UV-I 11,8 C 17,1 C 16,1 km/h (3 Bft)
01.10.2009 13:20 16,2 C 14,5 C 16,1 C 17,4 C 17,4 C 1,2 C 75 % 76 % 32 % 1008,3 hPa 0,0 l/m 10,6 km/h (2 Bft) W-SW 247 0 min 0,4 UV-I 11,8 C 17,4 C 16,6 km/h (3 Bft)
01.10.2009 13:25 16,1 C 14,5 C 16,0 C 17,3 C 17,3 C 1,2 C 75 % 77 % 32 % 1008,1 hPa 0,0 l/m 10,1 km/h (2 Bft) W-SW 247 0 min 0,2 UV-I 11,7 C 17,3 C 14,2 km/h (3 Bft)
01.10.2009 13:30 16,2 C 14,5 C 16,0 C 17,1 C 17,1 C 0,9 C 75 % 77 % 24 % 1008,1 hPa 0,0 l/m 10,0 km/h (2 Bft) S 180 0 min 0,2 UV-I 11,8 C 17,1 C 10,5 km/h (2 Bft)
01.10.2009 13:35 16,2 C 14,5 C 16,1 C 17,2 C 17,2 C 1,0 C 75 % 76 % 26 % 1008,1 hPa 0,0 l/m 10,1 km/h (2 Bft) W-SW 247 0 min 0,7 UV-I 11,8 C 17,2 C 14,6 km/h (3 Bft)
01.10.2009 13:40 16,1 C 14,5 C 16,0 C 17,3 C 17,3 C 1,2 C 75 % 76 % 32 % 1008,1 hPa 0,0 l/m 9,5 km/h (2 Bft) S 180 0 min 0,4 UV-I 11,7 C 17,3 C 8,7 km/h (2 Bft)
01.10.2009 13:45 16,1 C 14,5 C 15,9 C 17,1 C 17,1 C 1,0 C 75 % 77 % 26 % 1007,9 hPa 0,0 l/m 9,2 km/h (2 Bft) S-SW 202 0 min 0,2 UV-I 11,7 C 17,1 C 9,0 km/h (2 Bft)
01.10.2009 13:50 16,1 C 14,5 C 15,9 C 16,8 C 16,8 C 0,7 C 75 % 77 % 18 % 1007,9 hPa 0,0 l/m 8,7 km/h (2 Bft) W-SW 247 0 min 0,2 UV-I 11,7 C 16,8 C 10,5 km/h (2 Bft)
01.10.2009 13:55 16,0 C 14,6 C 15,9 C 16,7 C 16,7 C 0,7 C 76 % 78 % 18 % 1007,9 hPa 0,0 l/m 8,0 km/h (2 Bft) SW 225 0 min 0,2 UV-I 11,8 C 16,7 C 9,3 km/h (2 Bft)
01.10.2009 14:00 15,9 C 14,7 C 15,5 C 16,3 C 16,0 C 0,4 C 76 % 78 % 11 % 1007,9 hPa 0,0 l/m 10,3 km/h (2 Bft) SW 225 0 min 0,3 UV-I 11,7 C 16,0 C 26,1 km/h (4 Bft)
01.10.2009 14:06 14,8 C 14,7 C 14,0 C 14,7 C 13,5 C 0,0 C 77 % 81 % 0 % 1008,6 hPa 0,0 l/m 9,2 km/h (2 Bft) NW 315 0 min 0,2 UV-I 10,8 C 13,5 C 8,9 km/h (2 Bft)
01.10.2009 14:10 14,8 C 14,7 C 14,0 C 14,4 C 13,5 C 0,0 C 77 % 81 % 0 % 1008,6 hPa 0,0 l/m 9,2 km/h (2 Bft) NW 315 0 min 0,2 UV-I 10,8 C 13,5 C 8,9 km/h (2 Bft)
01.10.2009 14:15 14,6 C 14,7 C 13,9 C 14,2 C 13,4 C 0,0 C 78 % 83 % 0 % 1008,6 hPa 0,0 l/m 7,9 km/h (2 Bft) SW 225 0 min 0,2 UV-I 10,8 C 13,4 C 7,9 km/h (2 Bft)
01.10.2009 14:20 14,4 C 14,7 C 13,5 C 13,9 C 13,0 C 0,0 C 80 % 84 % 0 % 1008,6 hPa 0,0 l/m 7,1 km/h (2 Bft) S-SW 202 0 min 0,5 UV-I 11,0 C 13,0 C 6,6 km/h (2 Bft)
01.10.2009 14:25 14,2 C 14,8 C 13,2 C 13,7 C 12,7 C 0,0 C 81 % 85 % 0 % 1008,8 hPa 0,0 l/m 7,2 km/h (2 Bft) S 180 0 min 0,2 UV-I 11,0 C 12,7 C 8,7 km/h (2 Bft)
01.10.2009 14:30 14,0 C 14,9 C 12,8 C 13,4 C 11,7 C 0,0 C 83 % 88 % 0 % 1008,8 hPa 0,0 l/m 8,4 km/h (2 Bft) S-SW 202 0 min 0,2 UV-I 11,2 C 11,7 C 10,0 km/h (2 Bft)
01.10.2009 14:35 13,8 C 14,9 C 12,7 C 13,1 C 11,5 C 0,0 C 84 % 89 % 0 % 1008,8 hPa 0,7 l/m 8,7 km/h (2 Bft) SW 225 0 min 0,2 UV-I 11,1 C 11,5 C 8,0 km/h (2 Bft)
01.10.2009 14:40 13,7 C 15,0 C 12,4 C 13,0 C 11,3 C 0,0 C 84 % 89 % 0 % 1008,8 hPa 0,0 l/m 8,0 km/h (2 Bft) SW 225 0 min 0,3 UV-I 11,0 C 11,3 C 6,4 km/h (2 Bft)
01.10.2009 14:45 13,4 C 15,0 C 12,3 C 12,7 C 11,3 C 0,0 C 84 % 90 % 0 % 1009,0 hPa 0,0 l/m 7,4 km/h (2 Bft) W 270 0 min 0,2 UV-I 10,8 C 11,3 C 8,0 km/h (2 Bft)
01.10.2009 14:50 13,4 C 15,0 C 12,0 C 12,7 C 11,4 C 0,0 C 84 % 90 % 0 % 1009,0 hPa 0,0 l/m 6,4 km/h (2 Bft) W-SW 247 0 min 0,3 UV-I 10,8 C 11,4 C 8,2 km/h (2 Bft)
01.10.2009 14:55 13,4 C 14,9 C 12,0 C 12,8 C 11,7 C 0,0 C 85 % 90 % 0 % 1009,0 hPa 0,0 l/m 5,6 km/h (1 Bft) S 180 0 min 0,4 UV-I 10,9 C 11,7 C 6,8 km/h (2 Bft)
01.10.2009 15:00 13,3 C 14,9 C 12,0 C 12,9 C 12,2 C 0,0 C 85 % 90 % 0 % 1009,0 hPa 0,0 l/m 5,1 km/h (1 Bft) SW 225 0 min 0,5 UV-I 10,8 C 12,2 C 5,3 km/h (1 Bft)
01.10.2009 15:10 13,3 C 14,8 C 12,1 C 13,1 C 12,7 C 0,0 C 85 % 91 % 0 % 1009,1 hPa 0,0 l/m 4,7 km/h (1 Bft) S-SW 202 0 min 0,4 UV-I 10,8 C 12,7 C 7,1 km/h (2 Bft)
01.10.2009 15:15 13,2 C 14,8 C 12,0 C 13,1 C 12,8 C 0,0 C 85 % 90 % 0 % 1009,1 hPa 0,0 l/m 4,3 km/h (1 Bft) S-SW 202 0 min 0,3 UV-I 10,7 C 12,8 C 6,6 km/h (2 Bft)
01.10.2009 15:20 13,3 C 14,8 C 12,1 C 13,1 C 12,6 C 0,0 C 85 % 90 % 0 % 1009,1 hPa 0,0 l/m 6,0 km/h (2 Bft) S-SW 202 0 min 0,3 UV-I 10,8 C 12,6 C 10,3 km/h (2 Bft)
01.10.2009 15:25 13,2 C 14,8 C 12,1 C 13,0 C 12,5 C 0,0 C 85 % 90 % 0 % 1009,2 hPa 0,0 l/m 6,4 km/h (2 Bft) S-SO 157 0 min 0,3 UV-I 10,7 C 12,5 C 5,8 km/h (2 Bft)
01.10.2009 15:30 13,2 C 14,8 C 12,1 C 12,9 C 12,4 C 0,0 C 85 % 91 % 0 % 1009,2 hPa 0,0 l/m 6,3 km/h (2 Bft) NW 315 0 min 0,3 UV-I 10,7 C 12,4 C 5,8 km/h (2 Bft)
01.10.2009 15:35 13,1 C 14,8 C 12,2 C 12,9 C 12,6 C 0,0 C 85 % 91 % 0 % 1009,2 hPa 0,0 l/m 5,6 km/h (1 Bft) W-SW 247 0 min 0,3 UV-I 10,6 C 12,6 C 5,5 km/h (1 Bft)
01.10.2009 15:40 13,2 C 14,8 C 12,3 C 13,0 C 12,7 C 0,0 C 86 % 91 % 0 % 1009,2 hPa 0,0 l/m 4,5 km/h (1 Bft) S 180 0 min 0,2 UV-I 10,9 C 12,7 C 7,1 km/h (2 Bft)
01.10.2009 15:45 13,2 C 14,8 C 12,3 C 13,0 C 12,7 C 0,0 C 86 % 91 % 0 % 1009,6 hPa 0,0 l/m 4,5 km/h (1 Bft) SW 225 0 min 0,2 UV-I 10,9 C 12,7 C 7,2 km/h (2 Bft)
01.10.2009 15:50 13,1 C 14,8 C 12,2 C 12,9 C 12,4 C 0,0 C 86 % 91 % 0 % 1009,6 hPa 0,0 l/m 6,3 km/h (2 Bft) S-SW 202 0 min 0,1 UV-I 10,8 C 12,4 C 12,4 km/h (3 Bft)
01.10.2009 15:55 13,1 C 14,8 C 12,2 C 12,8 C 12,2 C 0,0 C 85 % 91 % 0 % 1009,6 hPa 0,0 l/m 6,8 km/h (2 Bft) SW 225 0 min 0,1 UV-I 10,6 C 12,2 C 13,4 km/h (3 Bft)
01.10.2009 16:00 13,1 C 14,8 C 12,1 C 12,7 C 11,9 C 0,0 C 85 % 90 % 0 % 1009,6 hPa 0,0 l/m 6,6 km/h (2 Bft) W-SW 247 0 min 0,1 UV-I 10,6 C 11,9 C 10,5 km/h (2 Bft)
01.10.2009 16:06 12,9 C 14,7 C 12,1 C 12,6 C 12,1 C 0,0 C 85 % 89 % 0 % 1009,6 hPa 0,0 l/m 5,3 km/h (1 Bft) S 180 0 min 0,1 UV-I 10,4 C 12,1 C 8,0 km/h (2 Bft)
01.10.2009 16:10 12,9 C 14,7 C 12,1 C 12,6 C 12,1 C 0,0 C 85 % 89 % 0 % 1009,6 hPa 0,0 l/m 5,3 km/h (1 Bft) S 180 0 min 0,1 UV-I 10,4 C 12,1 C 8,0 km/h (2 Bft)
01.10.2009 16:15 13,0 C 14,7 C 12,1 C 12,7 C 12,1 C 0,0 C 85 % 89 % 0 % 1009,6 hPa 0,0 l/m 5,1 km/h (1 Bft) SW 225 0 min 0,1 UV-I 10,5 C 12,1 C 7,1 km/h (2 Bft)
01.10.2009 16:17 12,9 C 14,7 C 12,1 C 12,6 C 12,1 C 0,0 C 85 % 89 % 0 % 1009,6 hPa 0,0 l/m 5,0 km/h (1 Bft) SO 135 0 min 0,0 UV-I 10,4 C 12,1 C 4,5 km/h (1 Bft)
01.10.2009 16:20 12,9 C 14,7 C 12,1 C 12,6 C 12,1 C 0,0 C 85 % 89 % 0 % 1009,6 hPa 0,0 l/m 5,0 km/h (1 Bft) SO 135 0 min 0,0 UV-I 10,4 C 12,1 C 4,5 km/h (1 Bft)
01.10.2009 16:25 12,9 C 14,8 C 12,1 C 12,6 C 12,0 C 0,0 C 85 % 89 % 0 % 1009,7 hPa 0,0 l/m 4,7 km/h (1 Bft) W-SW 247 0 min 0,0 UV-I 10,4 C 12,0 C 3,7 km/h (1 Bft)
01.10.2009 16:35 12,8 C 14,8 C 12,0 C 12,5 C 11,8 C 0,0 C 85 % 89 % 0 % 1009,7 hPa 0,0 l/m 5,1 km/h (1 Bft) SW 225 0 min 0,0 UV-I 10,3 C 11,8 C 3,4 km/h (1 Bft)
01.10.2009 16:40 12,8 C 14,9 C 12,0 C 12,5 C 11,9 C 0,0 C 85 % 90 % 0 % 1009,7 hPa 0,0 l/m 3,7 km/h (1 Bft) O 90 0 min 0,0 UV-I 10,3 C 11,9 C 9,3 km/h (2 Bft)
01.10.2009 16:45 12,8 C 15,0 C 12,0 C 12,5 C 11,9 C 0,0 C 86 % 90 % 0 % 1009,9 hPa 0,0 l/m 3,2 km/h (1 Bft) O-NO 67 0 min 0,0 UV-I 10,5 C 11,9 C 3,4 km/h (1 Bft)
01.10.2009 16:50 12,8 C 14,9 C 12,1 C 12,5 C 11,9 C 0,0 C 86 % 90 % 0 % 1009,9 hPa 0,0 l/m 4,7 km/h (1 Bft) SW 225 0 min 0,0 UV-I 10,5 C 11,9 C 6,8 km/h (2 Bft)
01.10.2009 16:55 12,9 C 15,0 C 12,1 C 12,6 C 11,9 C 0,0 C 87 % 90 % 0 % 1009,9 hPa 0,0 l/m 5,3 km/h (1 Bft) W-SW 247 0 min 0,0 UV-I 10,8 C 11,9 C 7,9 km/h (2 Bft)
01.10.2009 17:00 12,9 C 14,9 C 12,3 C 12,5 C 11,8 C 0,0 C 87 % 91 % 0 % 1009,9 hPa 0,0 l/m 6,3 km/h (2 Bft) S 180 0 min 0,0 UV-I 10,8 C 11,8 C 11,9 km/h (2 Bft)
01.10.2009 17:06 12,9 C 14,9 C 12,3 C 12,6 C 12,1 C 0,0 C 86 % 90 % 0 % 1009,6 hPa 0,0 l/m 6,0 km/h (2 Bft) S-SW 202 0 min 0,0 UV-I 10,6 C 12,1 C 7,6 km/h (2 Bft)
01.10.2009 17:07 12,9 C 14,9 C 12,3 C 12,6 C 12,1 C 0,0 C 86 % 90 % 0 % 1009,6 hPa 0,0 l/m 6,0 km/h (2 Bft) S-SW 202 0 min 0,0 UV-I 10,6 C 12,1 C 7,6 km/h (2 Bft)
01.10.2009 17:10 12,9 C 14,9 C 12,3 C 12,6 C 12,1 C 0,0 C 86 % 90 % 0 % 1009,6 hPa 0,0 l/m 6,0 km/h (2 Bft) S-SW 202 0 min 0,0 UV-I 10,6 C 12,1 C 7,6 km/h (2 Bft)
01.10.2009 17:15 12,9 C 14,8 C 12,3 C 12,6 C 12,1 C 0,0 C 86 % 90 % 0 % 1009,6 hPa 0,0 l/m 6,1 km/h (2 Bft) SW 225 0 min 0,0 UV-I 10,6 C 12,1 C 13,0 km/h (3 Bft)
01.10.2009 17:20 12,9 C 14,8 C 12,3 C 12,7 C 12,2 C 0,0 C 86 % 90 % 0 % 1009,6 hPa 0,0 l/m 6,1 km/h (2 Bft) SW 225 0 min 0,0 UV-I 10,6 C 12,2 C 6,8 km/h (2 Bft)
01.10.2009 17:25 12,8 C 14,8 C 12,2 C 12,6 C 12,2 C 0,0 C 86 % 90 % 0 % 1009,6 hPa 0,0 l/m 6,0 km/h (2 Bft) SO 135 0 min 0,0 UV-I 10,5 C 12,2 C 3,2 km/h (1 Bft)
01.10.2009 17:30 12,8 C 14,7 C 12,2 C 12,6 C 12,1 C 0,0 C 86 % 90 % 0 % 1009,6 hPa 0,0 l/m 5,6 km/h (1 Bft) W-SW 247 0 min 0,0 UV-I 10,5 C 12,1 C 10,6 km/h (2 Bft)
01.10.2009 17:35 12,7 C 14,7 C 12,3 C 12,5 C 12,2 C 0,0 C 86 % 90 % 0 % 1009,6 hPa 0,0 l/m 4,5 km/h (1 Bft) S-SO 157 0 min 0,0 UV-I 10,4 C 12,2 C 4,8 km/h (1 Bft)
01.10.2009 17:40 12,7 C 14,7 C 12,1 C 12,4 C 11,8 C 0,0 C 85 % 89 % 0 % 1009,6 hPa 0,0 l/m 5,8 km/h (2 Bft) SW 225 0 min 0,0 UV-I 10,2 C 11,8 C 17,7 km/h (3 Bft)
01.10.2009 17:45 12,7 C 14,7 C 12,0 C 12,3 C 11,6 C 0,0 C 85 % 89 % 0 % 1010,2 hPa 0,0 l/m 6,6 km/h (2 Bft) W-SW 247 0 min 0,0 UV-I 10,2 C 11,6 C 8,0 km/h (2 Bft)
01.10.2009 17:50 12,7 C 14,7 C 11,9 C 12,2 C 11,3 C 0,0 C 85 % 89 % 0 % 1010,2 hPa 0,0 l/m 7,2 km/h (2 Bft) S-SW 202 0 min 0,0 UV-I 10,2 C 11,3 C 11,6 km/h (2 Bft)
01.10.2009 17:55 12,6 C 14,7 C 12,0 C 12,2 C 11,4 C 0,0 C 85 % 89 % 0 % 1010,2 hPa 0,0 l/m 6,9 km/h (2 Bft) W-SW 247 0 min 0,0 UV-I 10,1 C 11,4 C 10,3 km/h (2 Bft)
01.10.2009 18:00 12,7 C 14,7 C 12,0 C 12,3 C 11,4 C 0,0 C 85 % 89 % 0 % 1010,2 hPa 0,0 l/m 7,1 km/h (2 Bft) S 180 0 min 0,0 UV-I 10,2 C 11,4 C 5,8 km/h (2 Bft)
01.10.2009 18:06 12,5 C 14,7 C 11,8 C 12,1 C 11,3 C 0,0 C 86 % 89 % 0 % 1009,8 hPa 0,0 l/m 7,1 km/h (2 Bft) SW 225 0 min 0,0 UV-I 10,2 C 11,3 C 12,2 km/h (2 Bft)
01.10.2009 18:07 12,5 C 14,7 C 11,8 C 12,1 C 11,3 C 0,0 C 86 % 89 % 0 % 1009,8 hPa 0,0 l/m 7,1 km/h (2 Bft) SW 225 0 min 0,0 UV-I 10,2 C 11,3 C 12,2 km/h (2 Bft)
01.10.2009 18:10 12,5 C 14,7 C 11,8 C 12,1 C 11,3 C 0,0 C 86 % 89 % 0 % 1009,8 hPa 0,0 l/m 7,1 km/h (2 Bft) SW 225 0 min 0,0 UV-I 10,2 C 11,3 C 12,2 km/h (2 Bft)
01.10.2009 18:15 12,4 C 14,7 C 11,9 C 12,0 C 11,2 C 0,0 C 86 % 89 % 0 % 1009,8 hPa 0,0 l/m 6,4 km/h (2 Bft) S 180 0 min 0,0 UV-I 10,1 C 11,2 C 7,1 km/h (2 Bft)
01.10.2009 18:20 12,4 C 14,7 C 11,9 C 11,9 C 11,0 C 0,0 C 86 % 90 % 0 % 1009,8 hPa 0,0 l/m 6,1 km/h (2 Bft) W-SW 247 0 min 0,0 UV-I 10,1 C 11,0 C 4,8 km/h (1 Bft)
01.10.2009 18:25 12,4 C 14,8 C 11,7 C 12,0 C 11,1 C 0,0 C 86 % 90 % 0 % 1010,2 hPa 0,0 l/m 5,3 km/h (1 Bft) W-SW 247 0 min 0,0 UV-I 10,1 C 11,1 C 5,3 km/h (1 Bft)
01.10.2009 18:30 12,3 C 14,6 C 11,7 C 11,8 C 10,8 C 0,0 C 85 % 88 % 0 % 1010,2 hPa 0,0 l/m 6,3 km/h (2 Bft) S-SW 202 0 min 0,0 UV-I 9,9 C 10,8 C 5,3 km/h (1 Bft)
01.10.2009 18:35 12,3 C 14,6 C 11,7 C 11,7 C 10,6 C 0,0 C 85 % 88 % 0 % 1010,2 hPa 0,0 l/m 7,1 km/h (2 Bft) W 270 0 min 0,0 UV-I 9,9 C 10,6 C 5,3 km/h (1 Bft)
01.10.2009 18:40 12,3 C 14,6 C 11,7 C 11,8 C 10,9 C 0,0 C 85 % 88 % 0 % 1010,2 hPa 0,0 l/m 5,1 km/h (1 Bft) S-SW 202 0 min 0,0 UV-I 9,9 C 10,9 C 5,1 km/h (1 Bft)
01.10.2009 18:45 12,2 C 14,6 C 11,7 C 11,8 C 10,9 C 0,0 C 85 % 88 % 0 % 1010,7 hPa 0,0 l/m 5,1 km/h (1 Bft) S-SW 202 0 min 0,0 UV-I 9,8 C 10,9 C 8,2 km/h (2 Bft)
01.10.2009 18:50 12,3 C 14,6 C 11,7 C 11,7 C 10,6 C 0,0 C 84 % 87 % 0 % 1010,7 hPa 0,0 l/m 6,6 km/h (2 Bft) SW 225 0 min 0,0 UV-I 9,7 C 10,6 C 5,0 km/h (1 Bft)
01.10.2009 18:55 12,1 C 14,6 C 11,6 C 11,5 C 10,4 C 0,0 C 84 % 86 % 0 % 1010,7 hPa 0,0 l/m 6,3 km/h (2 Bft) SW 225 0 min 0,0 UV-I 9,5 C 10,4 C 8,2 km/h (2 Bft)
01.10.2009 19:00 12,1 C 14,5 C 11,5 C 11,6 C 10,6 C 0,0 C 84 % 87 % 0 % 1010,7 hPa 0,0 l/m 5,1 km/h (1 Bft) SO 135 0 min 0,0 UV-I 9,5 C 10,6 C 8,9 km/h (2 Bft)
01.10.2009 19:06 12,1 C 14,6 C 11,5 C 11,6 C 10,6 C 0,0 C 84 % 87 % 0 % 1010,6 hPa 0,0 l/m 3,9 km/h (1 Bft) SW 225 0 min 0,0 UV-I 9,5 C 10,6 C 2,3 km/h (1 Bft)
01.10.2009 19:07 12,1 C 14,6 C 11,5 C 11,6 C 10,6 C 0,0 C 84 % 87 % 0 % 1010,6 hPa 0,0 l/m 3,9 km/h (1 Bft) SW 225 0 min 0,0 UV-I 9,5 C 10,6 C 2,3 km/h (1 Bft)
01.10.2009 19:10 12,1 C 14,6 C 11,5 C 11,6 C 10,6 C 0,0 C 84 % 87 % 0 % 1010,6 hPa 0,0 l/m 3,9 km/h (1 Bft) SW 225 0 min 0,0 UV-I 9,5 C 10,6 C 2,3 km/h (1 Bft)
01.10.2009 19:15 12,0 C 14,6 C 11,4 C 11,6 C 10,7 C 0,0 C 84 % 88 % 0 % 1010,6 hPa 0,0 l/m 3,7 km/h (1 Bft) SW 225 0 min 0,0 UV-I 9,4 C 10,7 C 5,5 km/h (1 Bft)
01.10.2009 19:20 12,0 C 14,6 C 11,4 C 11,6 C 10,8 C 0,0 C 85 % 88 % 0 % 1010,6 hPa 0,0 l/m 3,7 km/h (1 Bft) W-SW 247 0 min 0,0 UV-I 9,6 C 10,8 C 2,1 km/h (1 Bft)
01.10.2009 19:25 12,0 C 14,6 C 11,3 C 11,6 C 10,9 C 0,0 C 85 % 88 % 0 % 1011,2 hPa 0,0 l/m 3,2 km/h (1 Bft) W-SW 247 0 min 0,0 UV-I 9,6 C 10,9 C 4,5 km/h (1 Bft)
01.10.2009 19:30 12,1 C 14,6 C 11,4 C 11,7 C 10,9 C 0,0 C 85 % 89 % 0 % 1011,2 hPa 0,0 l/m 2,6 km/h (1 Bft) SW 225 0 min 0,0 UV-I 9,7 C 10,9 C 5,3 km/h (1 Bft)
01.10.2009 19:35 12,0 C 14,6 C 11,4 C 11,7 C 11,0 C 0,0 C 86 % 89 % 0 % 1011,2 hPa 0,0 l/m 3,1 km/h (1 Bft) SW 225 0 min 0,0 UV-I 9,7 C 11,0 C 7,7 km/h (2 Bft)
01.10.2009 19:40 12,0 C 14,5 C 11,4 C 11,7 C 11,0 C 0,0 C 85 % 88 % 0 % 1011,2 hPa 0,0 l/m 3,9 km/h (1 Bft) SW 225 0 min 0,0 UV-I 9,6 C 11,0 C 4,7 km/h (1 Bft)
01.10.2009 19:45 12,0 C 14,5 C 11,5 C 11,7 C 11,1 C 0,0 C 85 % 89 % 0 % 1011,2 hPa 0,0 l/m 3,9 km/h (1 Bft) W-SW 247 0 min 0,0 UV-I 9,6 C 11,1 C 7,1 km/h (2 Bft)
01.10.2009 19:50 12,0 C 14,5 C 11,3 C 11,7 C 11,0 C 0,0 C 85 % 88 % 0 % 1011,2 hPa 0,0 l/m 3,9 km/h (1 Bft) W-SW 247 0 min 0,0 UV-I 9,6 C 11,0 C 6,9 km/h (2 Bft)
01.10.2009 19:55 12,0 C 14,5 C 11,3 C 11,6 C 10,9 C 0,0 C 85 % 88 % 0 % 1011,2 hPa 0,0 l/m 4,3 km/h (1 Bft) S 180 0 min 0,0 UV-I 9,6 C 10,9 C 3,4 km/h (1 Bft)
01.10.2009 20:00 11,9 C 14,5 C 11,3 C 11,5 C 10,8 C 0,0 C 84 % 88 % 0 % 1011,2 hPa 0,0 l/m 4,7 km/h (1 Bft) SW 225 0 min 0,0 UV-I 9,3 C 10,8 C 6,4 km/h (2 Bft)
01.10.2009 20:06 11,9 C 14,5 C 11,2 C 11,6 C 10,9 C 0,0 C 84 % 88 % 0 % 1011,7 hPa 0,0 l/m 4,0 km/h (1 Bft) S 180 0 min 0,0 UV-I 9,3 C 10,9 C 4,2 km/h (1 Bft)
01.10.2009 20:07 11,9 C 14,5 C 11,2 C 11,6 C 10,9 C 0,0 C 84 % 88 % 0 % 1011,7 hPa 0,0 l/m 4,0 km/h (1 Bft) S 180 0 min 0,0 UV-I 9,3 C 10,9 C 4,2 km/h (1 Bft)
01.10.2009 20:15 11,9 C 14,5 C 11,2 C 11,6 C 10,9 C 0,0 C 84 % 88 % 0 % 1011,7 hPa 0,0 l/m 3,9 km/h (1 Bft) W 270 0 min 0,0 UV-I 9,3 C 10,9 C 8,7 km/h (2 Bft)
01.10.2009 20:20 11,9 C 14,5 C 11,3 C 11,6 C 10,9 C 0,0 C 84 % 88 % 0 % 1011,7 hPa 0,0 l/m 4,5 km/h (1 Bft) S 180 0 min 0,0 UV-I 9,3 C 10,9 C 6,8 km/h (2 Bft)
01.10.2009 20:25 11,9 C 14,4 C 11,2 C 11,6 C 10,9 C 0,0 C 84 % 88 % 0 % 1012,0 hPa 0,0 l/m 4,5 km/h (1 Bft) SW 225 0 min 0,0 UV-I 9,3 C 10,9 C 4,8 km/h (1 Bft)
01.10.2009 20:30 11,9 C 14,4 C 11,3 C 11,6 C 10,9 C 0,0 C 84 % 87 % 0 % 1012,0 hPa 0,0 l/m 4,2 km/h (1 Bft) W-SW 247 0 min 0,0 UV-I 9,3 C 10,9 C 3,4 km/h (1 Bft)
01.10.2009 20:35 11,9 C 14,4 C 11,3 C 11,6 C 10,9 C 0,0 C 84 % 88 % 0 % 1012,0 hPa 0,0 l/m 3,9 km/h (1 Bft) S-SW 202 0 min 0,0 UV-I 9,3 C 10,9 C 7,4 km/h (2 Bft)
01.10.2009 20:40 11,9 C 14,4 C 11,2 C 11,6 C 10,9 C 0,0 C 84 % 87 % 0 % 1012,0 hPa 0,0 l/m 4,2 km/h (1 Bft) W-SW 247 0 min 0,0 UV-I 9,3 C 10,9 C 8,4 km/h (2 Bft)
01.10.2009 20:45 11,8 C 14,4 C 11,2 C 11,5 C 10,9 C 0,0 C 84 % 87 % 0 % 1011,9 hPa 0,0 l/m 4,8 km/h (1 Bft) SW 225 0 min 0,0 UV-I 9,2 C 10,9 C 7,1 km/h (2 Bft)
01.10.2009 20:50 11,7 C 14,4 C 11,3 C 11,4 C 10,9 C 0,0 C 84 % 88 % 0 % 1011,9 hPa 0,0 l/m 4,7 km/h (1 Bft) SW 225 0 min 0,0 UV-I 9,1 C 10,9 C 4,3 km/h (1 Bft)
01.10.2009 20:55 11,7 C 14,4 C 11,3 C 11,5 C 11,0 C 0,0 C 84 % 87 % 0 % 1011,9 hPa 0,0 l/m 4,5 km/h (1 Bft) SW 225 0 min 0,0 UV-I 9,1 C 11,0 C 5,5 km/h (1 Bft)
01.10.2009 21:00 11,7 C 14,4 C 11,3 C 11,4 C 10,9 C 0,0 C 84 % 87 % 0 % 1011,9 hPa 0,0 l/m 4,8 km/h (1 Bft) S-SW 202 0 min 0,0 UV-I 9,1 C 10,9 C 9,2 km/h (2 Bft)
01.10.2009 21:06 11,7 C 14,4 C 11,3 C 11,4 C 10,7 C 0,0 C 84 % 87 % 0 % 1012,7 hPa 0,0 l/m 5,1 km/h (1 Bft) SW 225 0 min 0,0 UV-I 9,1 C 10,7 C 5,5 km/h (1 Bft)
01.10.2009 21:07 11,7 C 14,4 C 11,2 C 11,4 C 10,7 C 0,0 C 84 % 86 % 0 % 1012,7 hPa 0,0 l/m 4,8 km/h (1 Bft) S-SW 202 0 min 0,0 UV-I 9,1 C 10,7 C 3,7 km/h (1 Bft)
01.10.2009 21:10 11,7 C 14,4 C 11,2 C 11,4 C 10,7 C 0,0 C 84 % 86 % 0 % 1012,7 hPa 0,0 l/m 4,8 km/h (1 Bft) S-SW 202 0 min 0,0 UV-I 9,1 C 10,7 C 3,7 km/h (1 Bft)
01.10.2009 21:15 11,6 C 14,3 C 11,1 C 11,2 C 10,3 C 0,0 C 83 % 86 % 0 % 1012,7 hPa 0,0 l/m 5,8 km/h (2 Bft) W-SW 247 0 min 0,0 UV-I 8,8 C 10,3 C 9,2 km/h (2 Bft)
01.10.2009 21:20 11,6 C 14,3 C 11,1 C 11,2 C 10,4 C 0,0 C 83 % 86 % 0 % 1012,7 hPa 0,0 l/m 5,6 km/h (1 Bft) W-SW 247 0 min 0,0 UV-I 8,8 C 10,4 C 4,5 km/h (1 Bft)
01.10.2009 21:25 11,6 C 14,3 C 11,1 C 11,3 C 10,6 C 0,0 C 83 % 86 % 0 % 1012,7 hPa 0,0 l/m 4,3 km/h (1 Bft) SW 225 0 min 0,0 UV-I 8,8 C 10,6 C 5,0 km/h (1 Bft)
01.10.2009 21:30 11,7 C 14,3 C 11,0 C 11,3 C 10,6 C 0,0 C 83 % 86 % 0 % 1012,7 hPa 0,0 l/m 3,4 km/h (1 Bft) SW 225 0 min 0,0 UV-I 8,9 C 10,6 C 4,0 km/h (1 Bft)
01.10.2009 21:35 11,6 C 14,3 C 11,1 C 11,2 C 10,5 C 0,0 C 83 % 86 % 0 % 1012,7 hPa 0,0 l/m 3,5 km/h (1 Bft) SW 225 0 min 0,0 UV-I 8,8 C 10,5 C 6,3 km/h (2 Bft)
01.10.2009 21:40 11,5 C 14,3 C 10,9 C 11,1 C 10,3 C 0,0 C 83 % 86 % 0 % 1012,7 hPa 0,0 l/m 3,9 km/h (1 Bft) S 180 0 min 0,0 UV-I 8,7 C 10,3 C 5,3 km/h (1 Bft)
01.10.2009 21:45 11,5 C 14,3 C 10,8 C 11,0 C 10,1 C 0,0 C 83 % 86 % 0 % 1012,9 hPa 0,0 l/m 4,0 km/h (1 Bft) S-SW 202 0 min 0,0 UV-I 8,7 C 10,1 C 2,3 km/h (1 Bft)
01.10.2009 21:50 11,5 C 14,3 C 10,8 C 11,0 C 9,9 C 0,0 C 84 % 87 % 0 % 1012,9 hPa 0,0 l/m 3,7 km/h (1 Bft) SW 225 0 min 0,0 UV-I 8,9 C 9,9 C 8,7 km/h (2 Bft)
01.10.2009 21:55 11,5 C 14,3 C 10,7 C 10,9 C 9,7 C 0,0 C 84 % 87 % 0 % 1012,9 hPa 0,0 l/m 3,9 km/h (1 Bft) W-SW 247 0 min 0,0 UV-I 8,9 C 9,7 C 4,2 km/h (1 Bft)
01.10.2009 22:00 11,3 C 14,3 C 10,7 C 10,6 C 9,3 C 0,0 C 83 % 87 % 0 % 1012,9 hPa 0,0 l/m 4,8 km/h (1 Bft) S 180 0 min 0,0 UV-I 8,5 C 9,0 C 5,8 km/h (2 Bft)
01.10.2009 22:06 11,3 C 14,3 C 10,7 C 10,6 C 9,2 C 0,0 C 83 % 87 % 0 % 1013,1 hPa 0,0 l/m 5,3 km/h (1 Bft) SW 225 0 min 0,0 UV-I 8,5 C 8,8 C 10,5 km/h (2 Bft)
01.10.2009 22:07 11,2 C 14,3 C 10,5 C 10,5 C 9,2 C 0,0 C 83 % 87 % 0 % 1013,1 hPa 0,0 l/m 5,0 km/h (1 Bft) W-SW 247 0 min 0,0 UV-I 8,4 C 8,8 C 3,1 km/h (1 Bft)
01.10.2009 22:10 11,2 C 14,3 C 10,5 C 10,5 C 9,2 C 0,0 C 83 % 87 % 0 % 1013,1 hPa 0,0 l/m 5,0 km/h (1 Bft) W-SW 247 0 min 0,0 UV-I 8,4 C 8,8 C 3,1 km/h (1 Bft)
01.10.2009 22:12 11,2 C 14,3 C 10,4 C 10,6 C 9,4 C 0,0 C 83 % 87 % 0 % 1013,1 hPa 0,0 l/m 4,0 km/h (1 Bft) S-SW 202 0 min 0,0 UV-I 8,4 C 9,4 C 3,5 km/h (1 Bft)
01.10.2009 22:15 11,2 C 14,3 C 10,4 C 10,6 C 9,4 C 0,0 C 83 % 87 % 0 % 1013,1 hPa 0,0 l/m 4,0 km/h (1 Bft) S-SW 202 0 min 0,0 UV-I 8,4 C 9,4 C 3,5 km/h (1 Bft)
01.10.2009 22:20 11,2 C 14,2 C 10,4 C 10,5 C 9,2 C 0,0 C 83 % 87 % 0 % 1013,1 hPa 0,0 l/m 3,2 km/h (1 Bft) S 180 0 min 0,0 UV-I 8,4 C 9,2 C 3,1 km/h (1 Bft)
01.10.2009 22:25 11,1 C 14,2 C 10,3 C 10,5 C 9,2 C 0,0 C 83 % 87 % 0 % 1013,4 hPa 0,0 l/m 3,5 km/h (1 Bft) W-SW 247 0 min 0,0 UV-I 8,3 C 9,2 C 6,6 km/h (2 Bft)
01.10.2009 22:30 11,0 C 14,2 C 10,2 C 10,4 C 9,1 C 0,0 C 83 % 87 % 0 % 1013,4 hPa 0,0 l/m 3,2 km/h (1 Bft) SW 225 0 min 0,0 UV-I 8,2 C 9,1 C 5,5 km/h (1 Bft)
01.10.2009 22:35 11,1 C 14,2 C 10,3 C 10,4 C 9,0 C 0,0 C 83 % 87 % 0 % 1013,4 hPa 0,0 l/m 3,7 km/h (1 Bft) S 180 0 min 0,0 UV-I 8,3 C 9,0 C 8,9 km/h (2 Bft)
01.10.2009 22:40 11,1 C 14,2 C 10,2 C 10,4 C 8,9 C 0,0 C 83 % 87 % 0 % 1013,4 hPa 0,0 l/m 4,2 km/h (1 Bft) SW 225 0 min 0,0 UV-I 8,3 C 8,9 C 5,5 km/h (1 Bft)
01.10.2009 22:45 11,0 C 14,2 C 10,1 C 10,4 C 9,1 C 0,0 C 83 % 88 % 0 % 1013,5 hPa 0,0 l/m 4,0 km/h (1 Bft) SW 225 0 min 0,0 UV-I 8,2 C 9,1 C 4,0 km/h (1 Bft)
01.10.2009 22:50 11,0 C 14,2 C 10,1 C 10,4 C 9,2 C 0,0 C 83 % 88 % 0 % 1013,5 hPa 0,0 l/m 3,5 km/h (1 Bft) O-SO 112 0 min 0,0 UV-I 8,2 C 9,2 C 3,7 km/h (1 Bft)
01.10.2009 22:55 10,9 C 14,2 C 10,1 C 10,3 C 9,2 C 0,0 C 83 % 88 % 0 % 1013,5 hPa 0,0 l/m 2,6 km/h (1 Bft) SW 225 0 min 0,0 UV-I 8,1 C 9,2 C 3,1 km/h (1 Bft)
01.10.2009 23:00 10,9 C 14,2 C 10,0 C 10,3 C 9,1 C 0,0 C 84 % 88 % 0 % 1013,5 hPa 0,0 l/m 1,9 km/h (1 Bft) S-SW 202 0 min 0,0 UV-I 8,3 C 9,1 C 0,0 km/h (0 Bft)
01.10.2009 23:06 10,8 C 14,2 C 10,0 C 10,2 C 8,9 C 0,0 C 83 % 88 % 0 % 1013,6 hPa 0,0 l/m 1,3 km/h (1 Bft) SW 225 0 min 0,0 UV-I 8,0 C 8,9 C 0,0 km/h (0 Bft)
01.10.2009 23:07 10,8 C 14,3 C 10,0 C 10,1 C 8,6 C 0,0 C 84 % 88 % 0 % 1013,6 hPa 0,0 l/m 0,0 km/h (0 Bft) S-SO 157 0 min 0,0 UV-I 8,2 C 8,6 C 0,0 km/h (0 Bft)
01.10.2009 23:10 10,8 C 14,3 C 10,0 C 10,1 C 8,6 C 0,0 C 84 % 88 % 0 % 1013,6 hPa 0,0 l/m 0,0 km/h (0 Bft) S-SO 157 0 min 0,0 UV-I 8,2 C 8,6 C 0,0 km/h (0 Bft)
01.10.2009 23:15 10,7 C 14,4 C 9,9 C 9,9 C 8,4 C 0,0 C 84 % 88 % 0 % 1013,6 hPa 0,0 l/m 0,0 km/h (0 Bft) SW 225 0 min 0,0 UV-I 8,1 C 8,4 C 0,0 km/h (0 Bft)
01.10.2009 23:20 10,5 C 14,4 C 9,7 C 9,6 C 7,9 C 0,0 C 84 % 88 % 0 % 1013,6 hPa 0,0 l/m 0,0 km/h (0 Bft) S 180 0 min 0,0 UV-I 7,9 C 7,9 C 0,0 km/h (0 Bft)
01.10.2009 23:25 10,4 C 14,5 C 9,7 C 9,5 C 7,8 C 0,0 C 84 % 88 % 0 % 1013,4 hPa 0,0 l/m 0,0 km/h (0 Bft) N-NO 22 0 min 0,0 UV-I 7,8 C 7,8 C 0,0 km/h (0 Bft)
01.10.2009 23:30 10,3 C 14,5 C 9,5 C 9,4 C 7,6 C 0,0 C 85 % 89 % 0 % 1013,4 hPa 0,0 l/m 0,0 km/h (0 Bft) W-SW 247 0 min 0,0 UV-I 7,9 C 7,6 C 0,0 km/h (0 Bft)
01.10.2009 23:35 10,2 C 14,5 C 9,3 C 9,3 C 7,5 C 0,0 C 85 % 89 % 0 % 1013,4 hPa 0,0 l/m 0,0 km/h (0 Bft) S-SW 202 0 min 0,0 UV-I 7,8 C 7,5 C 0,0 km/h (0 Bft)
01.10.2009 23:40 10,0 C 14,5 C 9,2 C 9,1 C 7,4 C 0,0 C 85 % 89 % 0 % 1013,4 hPa 0,0 l/m 0,0 km/h (0 Bft) O-SO 112 0 min 0,0 UV-I 7,6 C 7,4 C 0,0 km/h (0 Bft)
01.10.2009 23:45 10,0 C 14,6 C 9,3 C 9,2 C 7,5 C 0,0 C 85 % 90 % 0 % 1013,9 hPa 0,0 l/m 0,0 km/h (0 Bft) SW 225 0 min 0,0 UV-I 7,6 C 7,5 C 1,8 km/h (1 Bft)
01.10.2009 23:50 10,1 C 14,5 C 9,3 C 9,3 C 7,6 C 0,0 C 86 % 90 % 0 % 1013,9 hPa 0,0 l/m 0,3 km/h (0 Bft) SW 225 0 min 0,0 UV-I 7,9 C 7,6 C 3,9 km/h (1 Bft)
01.10.2009 23:55 10,1 C 14,4 C 9,3 C 9,3 C 7,8 C 0,0 C 87 % 91 % 0 % 1013,9 hPa 0,0 l/m 0,8 km/h (0 Bft) SW 225 0 min 0,0 UV-I 8,0 C 7,8 C 2,3 km/h (1 Bft)
_ Min-Zeit 23:40 01:10 23:40 23:40 23:40 04:20 12:55 12:55 00:00 12:25 - 23:07 - - - 00:00 23:40 23:40 00:35
Minimum _ 10,0 C 14,2 C 9,2 C 9,1 C 7,4 C 0,0 C 75 % 76 % 0 % 1007,7 hPa - 0,0 km/h (0 Bft) - - - 0,0 UV-I 7,6 C 7,4 C 0,0 km/h (0 Bft)
_ Max-Zeit 13:10 14:40 12:15 12:15 12:15 12:15 00:00 00:00 12:15 23:45 14:35 12:20 - - 00:00 12:10 12:10 12:15 12:40
Maximum _ 16,2 C 15,0 C 16,3 C 18,3 C 18,3 C 2,2 C 92 % 99 % 58 % 1013,9 hPa 0,7 l/m 13,8 km/h
SW (3 Bft)
- - 0 min 1,1 UV-I 12,4 C 18,3 C 31,5 km/h
S (5 Bft)
Durchschnitt _ 13,4 C 14,5 C 13,1 C 13,6 C 13,2 C 0,3 C 85 % 89 % 6 % 1010,1 hPa #0,7 l/m 4,7 km/h (1 Bft) SW - #0 min. 0,4 UV-I 10,9 C 13,2 C 6,8 km/h (2 Bft)
2013 www.wetterstation-wechselburg.de